sensor_id;sensor_type;location;lat;lon;timestamp;temperature;humidity
13521;DHT22;6832;51.186;3.236;2023-02-24T00:01:14;15.30;63.50
13521;DHT22;6832;51.186;3.236;2023-02-24T00:03:50;15.30;63.50
13521;DHT22;6832;51.186;3.236;2023-02-24T00:06:18;15.30;63.50
13521;DHT22;6832;51.186;3.236;2023-02-24T00:08:45;15.30;63.50
13521;DHT22;6832;51.186;3.236;2023-02-24T00:11:14;15.30;63.50
13521;DHT22;6832;51.186;3.236;2023-02-24T00:13:43;15.30;63.50
13521;DHT22;6832;51.186;3.236;2023-02-24T00:16:13;15.30;63.50
13521;DHT22;6832;51.186;3.236;2023-02-24T00:18:41;15.30;63.60
13521;DHT22;6832;51.186;3.236;2023-02-24T00:21:10;15.30;63.50
13521;DHT22;6832;51.186;3.236;2023-02-24T00:23:42;15.30;63.60
13521;DHT22;6832;51.186;3.236;2023-02-24T00:26:12;15.30;63.50
13521;DHT22;6832;51.186;3.236;2023-02-24T00:28:40;15.20;63.40
13521;DHT22;6832;51.186;3.236;2023-02-24T00:31:11;15.40;63.60
13521;DHT22;6832;51.186;3.236;2023-02-24T00:33:40;15.20;63.50
13521;DHT22;6832;51.186;3.236;2023-02-24T00:36:10;15.30;63.50
13521;DHT22;6832;51.186;3.236;2023-02-24T00:38:38;15.20;63.50
13521;DHT22;6832;51.186;3.236;2023-02-24T00:41:12;15.20;63.40
13521;DHT22;6832;51.186;3.236;2023-02-24T00:43:43;15.20;63.40
13521;DHT22;6832;51.186;3.236;2023-02-24T00:46:12;15.20;63.40
13521;DHT22;6832;51.186;3.236;2023-02-24T00:48:42;15.30;63.50
13521;DHT22;6832;51.186;3.236;2023-02-24T00:51:11;15.20;63.50
13521;DHT22;6832;51.186;3.236;2023-02-24T00:53:39;15.20;63.40
13521;DHT22;6832;51.186;3.236;2023-02-24T00:56:06;15.20;63.50
13521;DHT22;6832;51.186;3.236;2023-02-24T00:58:38;15.20;63.40
13521;DHT22;6832;51.186;3.236;2023-02-24T01:01:11;15.20;64.20
13521;DHT22;6832;51.186;3.236;2023-02-24T01:03:38;15.20;63.50
13521;DHT22;6832;51.186;3.236;2023-02-24T01:06:06;15.20;64.20
13521;DHT22;6832;51.186;3.236;2023-02-24T01:08:33;15.20;63.40
13521;DHT22;6832;51.186;3.236;2023-02-24T01:11:08;15.20;63.40
13521;DHT22;6832;51.186;3.236;2023-02-24T01:13:54;15.20;63.50
13521;DHT22;6832;51.186;3.236;2023-02-24T01:16:21;15.20;63.40
13521;DHT22;6832;51.186;3.236;2023-02-24T01:18:48;15.20;63.50
13521;DHT22;6832;51.186;3.236;2023-02-24T01:21:16;15.20;63.50
13521;DHT22;6832;51.186;3.236;2023-02-24T01:23:46;15.30;63.50
13521;DHT22;6832;51.186;3.236;2023-02-24T01:26:14;15.20;63.40
13521;DHT22;6832;51.186;3.236;2023-02-24T01:28:41;15.10;63.40
13521;DHT22;6832;51.186;3.236;2023-02-24T01:31:15;15.20;64.20
13521;DHT22;6832;51.186;3.236;2023-02-24T01:33:42;15.10;63.30
13521;DHT22;6832;51.186;3.236;2023-02-24T01:36:12;15.10;63.30
13521;DHT22;6832;51.186;3.236;2023-02-24T01:38:40;15.10;63.30
13521;DHT22;6832;51.186;3.236;2023-02-24T01:41:09;15.10;63.30
13521;DHT22;6832;51.186;3.236;2023-02-24T01:43:59;15.10;63.30
13521;DHT22;6832;51.186;3.236;2023-02-24T01:46:30;15.10;63.30
13521;DHT22;6832;51.186;3.236;2023-02-24T01:49:01;15.10;63.40
13521;DHT22;6832;51.186;3.236;2023-02-24T01:51:35;15.10;63.40
13521;DHT22;6832;51.186;3.236;2023-02-24T01:54:09;15.10;63.30
13521;DHT22;6832;51.186;3.236;2023-02-24T01:56:37;15.00;63.20
13521;DHT22;6832;51.186;3.236;2023-02-24T01:59:07;15.00;63.20
13521;DHT22;6832;51.186;3.236;2023-02-24T02:01:36;15.10;63.30
13521;DHT22;6832;51.186;3.236;2023-02-24T02:04:13;15.10;63.30
13521;DHT22;6832;51.186;3.236;2023-02-24T02:06:43;15.10;63.30
13521;DHT22;6832;51.186;3.236;2023-02-24T02:09:11;15.10;63.30
13521;DHT22;6832;51.186;3.236;2023-02-24T02:11:40;15.10;64.10
13521;DHT22;6832;51.186;3.236;2023-02-24T02:14:07;15.10;63.20
13521;DHT22;6832;51.186;3.236;2023-02-24T02:16:56;15.10;63.30
13521;DHT22;6832;51.186;3.236;2023-02-24T02:19:52;15.10;63.30
13521;DHT22;6832;51.186;3.236;2023-02-24T02:22:45;15.10;63.20
13521;DHT22;6832;51.186;3.236;2023-02-24T02:25:20;15.00;63.10
13521;DHT22;6832;51.186;3.236;2023-02-24T02:28:10;15.00;63.10
13521;DHT22;6832;51.186;3.236;2023-02-24T02:34:04;15.00;62.90
13521;DHT22;6832;51.186;3.236;2023-02-24T02:36:40;15.00;63.70
13521;DHT22;6832;51.186;3.236;2023-02-24T02:39:13;15.00;63.10
13521;DHT22;6832;51.186;3.236;2023-02-24T02:41:48;15.00;63.00
13521;DHT22;6832;51.186;3.236;2023-02-24T02:44:22;15.00;62.90
13521;DHT22;6832;51.186;3.236;2023-02-24T02:46:58;15.00;62.90
13521;DHT22;6832;51.186;3.236;2023-02-24T02:49:31;15.00;62.90
13521;DHT22;6832;51.186;3.236;2023-02-24T02:52:04;15.00;62.90
13521;DHT22;6832;51.186;3.236;2023-02-24T02:54:38;15.00;62.90
13521;DHT22;6832;51.186;3.236;2023-02-24T02:57:12;14.90;62.90
13521;DHT22;6832;51.186;3.236;2023-02-24T02:59:44;14.90;62.80
13521;DHT22;6832;51.186;3.236;2023-02-24T03:02:16;14.90;62.90
13521;DHT22;6832;51.186;3.236;2023-02-24T03:04:49;14.90;62.80
13521;DHT22;6832;51.186;3.236;2023-02-24T03:07:18;14.90;62.70
13521;DHT22;6832;51.186;3.236;2023-02-24T03:09:50;14.90;62.80
13521;DHT22;6832;51.186;3.236;2023-02-24T03:12:21;14.90;62.80
13521;DHT22;6832;51.186;3.236;2023-02-24T03:14:52;14.90;62.80
13521;DHT22;6832;51.186;3.236;2023-02-24T03:17:25;14.90;62.80
13521;DHT22;6832;51.186;3.236;2023-02-24T03:20:00;14.80;62.60
13521;DHT22;6832;51.186;3.236;2023-02-24T03:22:43;14.90;62.70
13521;DHT22;6832;51.186;3.236;2023-02-24T03:25:11;14.80;62.70
13521;DHT22;6832;51.186;3.236;2023-02-24T03:27:42;14.90;62.80
13521;DHT22;6832;51.186;3.236;2023-02-24T03:30:14;14.90;62.60
13521;DHT22;6832;51.186;3.236;2023-02-24T03:32:46;14.80;63.30
13521;DHT22;6832;51.186;3.236;2023-02-24T03:35:24;14.80;62.60
13521;DHT22;6832;51.186;3.236;2023-02-24T03:37:52;14.80;62.50
13521;DHT22;6832;51.186;3.236;2023-02-24T03:40:20;14.80;62.60
13521;DHT22;6832;51.186;3.236;2023-02-24T03:42:57;14.80;62.70
13521;DHT22;6832;51.186;3.236;2023-02-24T03:45:25;14.80;62.50
13521;DHT22;6832;51.186;3.236;2023-02-24T03:47:52;14.80;62.60
13521;DHT22;6832;51.186;3.236;2023-02-24T03:50:22;14.80;62.60
13521;DHT22;6832;51.186;3.236;2023-02-24T03:52:59;14.80;62.50
13521;DHT22;6832;51.186;3.236;2023-02-24T03:55:37;14.80;62.40
13521;DHT22;6832;51.186;3.236;2023-02-24T03:58:14;14.70;62.40
13521;DHT22;6832;51.186;3.236;2023-02-24T04:00:50;14.70;62.30
13521;DHT22;6832;51.186;3.236;2023-02-24T04:03:25;14.70;62.30
13521;DHT22;6832;51.186;3.236;2023-02-24T04:06:04;14.70;62.40
13521;DHT22;6832;51.186;3.236;2023-02-24T04:08:38;14.70;62.30
13521;DHT22;6832;51.186;3.236;2023-02-24T04:11:13;14.70;62.30
13521;DHT22;6832;51.186;3.236;2023-02-24T04:13:47;14.70;62.40
13521;DHT22;6832;51.186;3.236;2023-02-24T04:16:18;14.70;62.40
13521;DHT22;6832;51.186;3.236;2023-02-24T04:18:55;14.70;62.40
13521;DHT22;6832;51.186;3.236;2023-02-24T04:21:26;14.70;62.40
13521;DHT22;6832;51.186;3.236;2023-02-24T04:23:56;14.60;62.20
13521;DHT22;6832;51.186;3.236;2023-02-24T04:26:25;14.70;62.30
13521;DHT22;6832;51.186;3.236;2023-02-24T04:28:53;14.60;62.20
13521;DHT22;6832;51.186;3.236;2023-02-24T04:31:21;14.70;62.30
13521;DHT22;6832;51.186;3.236;2023-02-24T04:33:51;14.70;62.30
13521;DHT22;6832;51.186;3.236;2023-02-24T04:36:19;14.60;62.20
13521;DHT22;6832;51.186;3.236;2023-02-24T04:38:47;14.60;62.20
13521;DHT22;6832;51.186;3.236;2023-02-24T04:41:15;14.60;62.20
13521;DHT22;6832;51.186;3.236;2023-02-24T04:43:48;14.60;62.20
13521;DHT22;6832;51.186;3.236;2023-02-24T04:46:16;14.60;62.20
13521;DHT22;6832;51.186;3.236;2023-02-24T04:48:43;14.60;62.20
13521;DHT22;6832;51.186;3.236;2023-02-24T04:51:11;14.60;63.00
13521;DHT22;6832;51.186;3.236;2023-02-24T04:53:40;14.60;62.20
13521;DHT22;6832;51.186;3.236;2023-02-24T04:56:08;14.50;62.10
13521;DHT22;6832;51.186;3.236;2023-02-24T04:58:37;14.40;62.00
13521;DHT22;6832;51.186;3.236;2023-02-24T05:01:08;14.50;62.10
13521;DHT22;6832;51.186;3.236;2023-02-24T05:03:37;14.50;62.10
13521;DHT22;6832;51.186;3.236;2023-02-24T05:06:10;14.50;62.10
13521;DHT22;6832;51.186;3.236;2023-02-24T05:08:38;14.50;62.10
13521;DHT22;6832;51.186;3.236;2023-02-24T05:11:05;14.50;62.00
13521;DHT22;6832;51.186;3.236;2023-02-24T05:13:34;14.50;62.90
13521;DHT22;6832;51.186;3.236;2023-02-24T05:16:05;14.40;61.90
13521;DHT22;6832;51.186;3.236;2023-02-24T05:18:32;14.40;61.90
13521;DHT22;6832;51.186;3.236;2023-02-24T05:21:04;14.50;62.00
13521;DHT22;6832;51.186;3.236;2023-02-24T05:23:49;14.40;61.90
13521;DHT22;6832;51.186;3.236;2023-02-24T05:26:18;14.40;61.90
13521;DHT22;6832;51.186;3.236;2023-02-24T05:28:48;14.40;61.90
13521;DHT22;6832;51.186;3.236;2023-02-24T05:31:19;14.40;61.90
13521;DHT22;6832;51.186;3.236;2023-02-24T05:33:47;14.40;61.80
13521;DHT22;6832;51.186;3.236;2023-02-24T05:36:16;14.40;61.90
13521;DHT22;6832;51.186;3.236;2023-02-24T05:38:43;14.40;61.90
13521;DHT22;6832;51.186;3.236;2023-02-24T05:41:13;14.40;61.90
13521;DHT22;6832;51.186;3.236;2023-02-24T05:43:42;14.30;61.70
13521;DHT22;6832;51.186;3.236;2023-02-24T05:46:14;14.40;61.80
13521;DHT22;6832;51.186;3.236;2023-02-24T05:48:41;14.30;61.70
13521;DHT22;6832;51.186;3.236;2023-02-24T05:51:11;14.30;61.70
13521;DHT22;6832;51.186;3.236;2023-02-24T05:53:39;14.40;61.70
13521;DHT22;6832;51.186;3.236;2023-02-24T05:56:07;14.30;61.70
13521;DHT22;6832;51.186;3.236;2023-02-24T05:58:34;14.30;61.70
13521;DHT22;6832;51.186;3.236;2023-02-24T06:01:09;14.30;61.70
13521;DHT22;6832;51.186;3.236;2023-02-24T06:03:42;14.30;61.60
13521;DHT22;6832;51.186;3.236;2023-02-24T06:06:12;14.20;61.50
13521;DHT22;6832;51.186;3.236;2023-02-24T06:08:40;14.20;61.60
13521;DHT22;6832;51.186;3.236;2023-02-24T06:11:15;14.20;61.60
13521;DHT22;6832;51.186;3.236;2023-02-24T06:13:43;14.20;61.50
13521;DHT22;6832;51.186;3.236;2023-02-24T06:16:13;14.20;61.50
13521;DHT22;6832;51.186;3.236;2023-02-24T06:18:47;14.20;61.40
13521;DHT22;6832;51.186;3.236;2023-02-24T06:21:14;14.20;61.40
13521;DHT22;6832;51.186;3.236;2023-02-24T06:23:44;14.20;61.50
13521;DHT22;6832;51.186;3.236;2023-02-24T06:26:11;14.20;61.40
13521;DHT22;6832;51.186;3.236;2023-02-24T06:28:44;14.20;61.50
13521;DHT22;6832;51.186;3.236;2023-02-24T06:31:11;14.20;61.50
13521;DHT22;6832;51.186;3.236;2023-02-24T06:33:40;14.20;61.40
13521;DHT22;6832;51.186;3.236;2023-02-24T06:36:08;14.10;61.30
13521;DHT22;6832;51.186;3.236;2023-02-24T06:38:36;14.10;61.30
13521;DHT22;6832;51.186;3.236;2023-02-24T06:41:04;14.10;61.30
13521;DHT22;6832;51.186;3.236;2023-02-24T06:43:36;14.10;61.30
13521;DHT22;6832;51.186;3.236;2023-02-24T06:46:04;14.00;61.20
13521;DHT22;6832;51.186;3.236;2023-02-24T06:48:32;14.10;61.30
13521;DHT22;6832;51.186;3.236;2023-02-24T06:51:03;14.10;61.40
13521;DHT22;6832;51.186;3.236;2023-02-24T06:53:32;14.10;61.30
13521;DHT22;6832;51.186;3.236;2023-02-24T06:56:04;14.10;61.40
13521;DHT22;6832;51.186;3.236;2023-02-24T06:58:39;14.10;61.50
13521;DHT22;6832;51.186;3.236;2023-02-24T07:01:09;14.00;61.30
13521;DHT22;6832;51.186;3.236;2023-02-24T07:03:36;14.00;61.30
13521;DHT22;6832;51.186;3.236;2023-02-24T07:06:12;14.00;61.40
13521;DHT22;6832;51.186;3.236;2023-02-24T07:08:52;14.00;61.40
13521;DHT22;6832;51.186;3.236;2023-02-24T07:11:19;14.10;61.50
13521;DHT22;6832;51.186;3.236;2023-02-24T07:13:47;14.00;61.50
13521;DHT22;6832;51.186;3.236;2023-02-24T07:16:14;14.00;61.50
13521;DHT22;6832;51.186;3.236;2023-02-24T07:18:42;13.90;61.40
13521;DHT22;6832;51.186;3.236;2023-02-24T07:21:14;14.00;61.40
13521;DHT22;6832;51.186;3.236;2023-02-24T07:23:43;14.00;61.50
13521;DHT22;6832;51.186;3.236;2023-02-24T07:26:18;13.90;61.40
13521;DHT22;6832;51.186;3.236;2023-02-24T07:28:49;14.00;61.50
13521;DHT22;6832;51.186;3.236;2023-02-24T07:31:17;13.90;61.40
13521;DHT22;6832;51.186;3.236;2023-02-24T07:33:45;13.90;61.40
13521;DHT22;6832;51.186;3.236;2023-02-24T07:36:14;14.00;61.50
13521;DHT22;6832;51.186;3.236;2023-02-24T07:38:43;13.90;61.40
13521;DHT22;6832;51.186;3.236;2023-02-24T07:41:12;13.90;61.40
13521;DHT22;6832;51.186;3.236;2023-02-24T07:43:41;13.90;61.40
13521;DHT22;6832;51.186;3.236;2023-02-24T07:46:10;13.90;61.40
13521;DHT22;6832;51.186;3.236;2023-02-24T07:48:37;13.90;61.40
13521;DHT22;6832;51.186;3.236;2023-02-24T07:51:06;13.90;61.40
13521;DHT22;6832;51.186;3.236;2023-02-24T07:53:33;13.90;61.40
13521;DHT22;6832;51.186;3.236;2023-02-24T07:56:07;13.90;61.40
13521;DHT22;6832;51.186;3.236;2023-02-24T07:58:38;13.90;61.40
13521;DHT22;6832;51.186;3.236;2023-02-24T08:01:08;13.80;61.30
13521;DHT22;6832;51.186;3.236;2023-02-24T08:03:42;13.90;61.40
13521;DHT22;6832;51.186;3.236;2023-02-24T08:06:09;13.90;61.40
13521;DHT22;6832;51.186;3.236;2023-02-24T08:08:40;13.80;61.30
13521;DHT22;6832;51.186;3.236;2023-02-24T08:11:23;13.90;61.40
13521;DHT22;6832;51.186;3.236;2023-02-24T08:13:51;13.80;61.40
13521;DHT22;6832;51.186;3.236;2023-02-24T08:16:19;13.80;61.30
13521;DHT22;6832;51.186;3.236;2023-02-24T08:18:47;13.80;61.30
13521;DHT22;6832;51.186;3.236;2023-02-24T08:21:15;13.70;61.20
13521;DHT22;6832;51.186;3.236;2023-02-24T08:23:46;13.80;61.30
13521;DHT22;6832;51.186;3.236;2023-02-24T08:26:13;13.80;61.30
13521;DHT22;6832;51.186;3.236;2023-02-24T08:28:40;13.80;61.30
13521;DHT22;6832;51.186;3.236;2023-02-24T08:31:08;13.80;61.30
13521;DHT22;6832;51.186;3.236;2023-02-24T08:33:38;13.80;61.30
13521;DHT22;6832;51.186;3.236;2023-02-24T08:36:05;13.80;61.30
13521;DHT22;6832;51.186;3.236;2023-02-24T08:38:34;13.80;61.40
13521;DHT22;6832;51.186;3.236;2023-02-24T08:41:17;13.80;61.40
13521;DHT22;6832;51.186;3.236;2023-02-24T08:43:47;13.80;61.30
13521;DHT22;6832;51.186;3.236;2023-02-24T08:46:17;13.80;61.40
13521;DHT22;6832;51.186;3.236;2023-02-24T08:48:48;13.80;61.30
13521;DHT22;6832;51.186;3.236;2023-02-24T08:51:21;13.70;61.20
13521;DHT22;6832;51.186;3.236;2023-02-24T08:53:53;13.70;61.20
13521;DHT22;6832;51.186;3.236;2023-02-24T08:56:25;13.70;61.30
13521;DHT22;6832;51.186;3.236;2023-02-24T08:58:54;13.70;61.20
13521;DHT22;6832;51.186;3.236;2023-02-24T09:01:31;13.70;61.20
13521;DHT22;6832;51.186;3.236;2023-02-24T09:04:10;13.80;61.30
13521;DHT22;6832;51.186;3.236;2023-02-24T09:06:46;13.70;61.30
13521;DHT22;6832;51.186;3.236;2023-02-24T09:09:15;13.70;61.30
13521;DHT22;6832;51.186;3.236;2023-02-24T09:11:43;13.70;61.30
13521;DHT22;6832;51.186;3.236;2023-02-24T09:14:12;13.70;61.40
13521;DHT22;6832;51.186;3.236;2023-02-24T09:16:44;13.70;61.40
13521;DHT22;6832;51.186;3.236;2023-02-24T09:19:35;13.70;61.30
13521;DHT22;6832;51.186;3.236;2023-02-24T09:22:22;13.70;61.30
13521;DHT22;6832;51.186;3.236;2023-02-24T09:25:02;13.70;61.30
13521;DHT22;6832;51.186;3.236;2023-02-24T09:27:47;13.70;61.40
13521;DHT22;6832;51.186;3.236;2023-02-24T09:30:18;13.70;61.40
13521;DHT22;6832;51.186;3.236;2023-02-24T09:33:16;13.70;62.20
13521;DHT22;6832;51.186;3.236;2023-02-24T09:35:52;13.80;61.50
13521;DHT22;6832;51.186;3.236;2023-02-24T09:38:29;13.70;61.40
13521;DHT22;6832;51.186;3.236;2023-02-24T09:41:26;13.70;61.40
13521;DHT22;6832;51.186;3.236;2023-02-24T09:44:02;13.70;61.40
13521;DHT22;6832;51.186;3.236;2023-02-24T09:46:37;13.70;61.40
13521;DHT22;6832;51.186;3.236;2023-02-24T09:49:12;13.70;61.50
13521;DHT22;6832;51.186;3.236;2023-02-24T09:51:43;13.60;61.40
13521;DHT22;6832;51.186;3.236;2023-02-24T09:54:14;13.70;61.60
13521;DHT22;6832;51.186;3.236;2023-02-24T09:56:49;13.70;61.60
13521;DHT22;6832;51.186;3.236;2023-02-24T09:59:29;13.70;61.60
13521;DHT22;6832;51.186;3.236;2023-02-24T10:02:08;13.60;61.50
13521;DHT22;6832;51.186;3.236;2023-02-24T10:04:46;13.70;61.60
13521;DHT22;6832;51.186;3.236;2023-02-24T10:07:24;13.70;61.60
13521;DHT22;6832;51.186;3.236;2023-02-24T10:09:57;13.70;61.70
13521;DHT22;6832;51.186;3.236;2023-02-24T10:12:46;13.70;61.70
13521;DHT22;6832;51.186;3.236;2023-02-24T10:15:18;13.80;61.80
13521;DHT22;6832;51.186;3.236;2023-02-24T10:18:25;13.90;61.80
13521;DHT22;6832;51.186;3.236;2023-02-24T10:20:55;13.80;61.70
13521;DHT22;6832;51.186;3.236;2023-02-24T10:23:28;13.80;61.80
13521;DHT22;6832;51.186;3.236;2023-02-24T10:26:00;13.80;61.80
13521;DHT22;6832;51.186;3.236;2023-02-24T10:28:31;13.80;61.80
13521;DHT22;6832;51.186;3.236;2023-02-24T10:31:08;13.80;62.00
13521;DHT22;6832;51.186;3.236;2023-02-24T10:33:53;13.80;61.90
13521;DHT22;6832;51.186;3.236;2023-02-24T10:41:44;13.80;61.80
13521;DHT22;6832;51.186;3.236;2023-02-24T10:44:20;13.80;62.00
13521;DHT22;6832;51.186;3.236;2023-02-24T10:46:59;13.80;62.00
13521;DHT22;6832;51.186;3.236;2023-02-24T10:49:40;13.80;62.20
13521;DHT22;6832;51.186;3.236;2023-02-24T10:52:15;13.90;62.40
13521;DHT22;6832;51.186;3.236;2023-02-24T10:55:03;13.90;62.50
13521;DHT22;6832;51.186;3.236;2023-02-24T10:57:41;13.80;62.50
13521;DHT22;6832;51.186;3.236;2023-02-24T11:00:17;13.90;62.70
13521;DHT22;6832;51.186;3.236;2023-02-24T11:03:17;14.00;62.80
13521;DHT22;6832;51.186;3.236;2023-02-24T11:06:00;14.00;62.80
13521;DHT22;6832;51.186;3.236;2023-02-24T11:08:44;14.10;62.90
13521;DHT22;6832;51.186;3.236;2023-02-24T11:11:34;14.00;62.80
13521;DHT22;6832;51.186;3.236;2023-02-24T11:14:24;14.10;62.90
13521;DHT22;6832;51.186;3.236;2023-02-24T11:17:17;14.10;63.00
13521;DHT22;6832;51.186;3.236;2023-02-24T11:19:49;14.20;63.10
13521;DHT22;6832;51.186;3.236;2023-02-24T11:22:22;14.30;63.20
13521;DHT22;6832;51.186;3.236;2023-02-24T11:24:51;14.30;63.10
13521;DHT22;6832;51.186;3.236;2023-02-24T11:27:22;14.30;63.10
13521;DHT22;6832;51.186;3.236;2023-02-24T11:30:10;14.30;63.00
13521;DHT22;6832;51.186;3.236;2023-02-24T11:32:57;14.40;63.10
13521;DHT22;6832;51.186;3.236;2023-02-24T11:35:38;14.40;63.00
13521;DHT22;6832;51.186;3.236;2023-02-24T11:38:21;14.40;62.90
13521;DHT22;6832;51.186;3.236;2023-02-24T11:40:59;14.40;62.80
13521;DHT22;6832;51.186;3.236;2023-02-24T11:43:32;14.40;62.70
13521;DHT22;6832;51.186;3.236;2023-02-24T11:46:06;14.40;62.70
13521;DHT22;6832;51.186;3.236;2023-02-24T11:48:38;14.50;62.80
13521;DHT22;6832;51.186;3.236;2023-02-24T11:51:16;14.50;62.70
13521;DHT22;6832;51.186;3.236;2023-02-24T11:53:48;14.60;62.80
13521;DHT22;6832;51.186;3.236;2023-02-24T11:56:21;14.50;62.70
13521;DHT22;6832;51.186;3.236;2023-02-24T11:59:14;14.60;62.80
13521;DHT22;6832;51.186;3.236;2023-02-24T12:01:57;14.60;62.80
13521;DHT22;6832;51.186;3.236;2023-02-24T12:04:35;14.60;62.90
13521;DHT22;6832;51.186;3.236;2023-02-24T12:07:07;14.60;62.70
13521;DHT22;6832;51.186;3.236;2023-02-24T12:09:41;14.60;62.80
13521;DHT22;6832;51.186;3.236;2023-02-24T12:12:12;14.60;62.70
13521;DHT22;6832;51.186;3.236;2023-02-24T12:14:47;14.60;62.70
13521;DHT22;6832;51.186;3.236;2023-02-24T12:17:22;14.60;62.60
13521;DHT22;6832;51.186;3.236;2023-02-24T12:20:01;14.70;62.70
13521;DHT22;6832;51.186;3.236;2023-02-24T12:22:34;14.70;62.60
13521;DHT22;6832;51.186;3.236;2023-02-24T12:25:11;14.70;62.70
13521;DHT22;6832;51.186;3.236;2023-02-24T12:27:49;14.70;62.50
13521;DHT22;6832;51.186;3.236;2023-02-24T12:30:44;14.70;62.40
13521;DHT22;6832;51.186;3.236;2023-02-24T12:33:30;14.70;62.40
13521;DHT22;6832;51.186;3.236;2023-02-24T12:36:03;14.70;62.40
13521;DHT22;6832;51.186;3.236;2023-02-24T12:38:47;14.70;62.30
13521;DHT22;6832;51.186;3.236;2023-02-24T12:44:20;14.70;62.30
13521;DHT22;6832;51.186;3.236;2023-02-24T12:46:53;14.70;62.30
13521;DHT22;6832;51.186;3.236;2023-02-24T12:50:02;14.70;62.30
13521;DHT22;6832;51.186;3.236;2023-02-24T12:52:37;14.70;62.30
13521;DHT22;6832;51.186;3.236;2023-02-24T12:55:15;14.70;62.30
13521;DHT22;6832;51.186;3.236;2023-02-24T12:57:54;14.60;62.20
13521;DHT22;6832;51.186;3.236;2023-02-24T13:00:27;14.70;62.30
13521;DHT22;6832;51.186;3.236;2023-02-24T13:03:00;14.70;62.30
13521;DHT22;6832;51.186;3.236;2023-02-24T13:05:43;14.70;62.20
13521;DHT22;6832;51.186;3.236;2023-02-24T13:08:20;14.70;62.20
13521;DHT22;6832;51.186;3.236;2023-02-24T13:10:59;14.70;62.20
13521;DHT22;6832;51.186;3.236;2023-02-24T13:13:36;14.80;62.30
13521;DHT22;6832;51.186;3.236;2023-02-24T13:16:05;14.70;62.20
13521;DHT22;6832;51.186;3.236;2023-02-24T13:18:34;14.70;62.20
13521;DHT22;6832;51.186;3.236;2023-02-24T13:21:07;14.80;62.30
13521;DHT22;6832;51.186;3.236;2023-02-24T13:23:39;14.80;62.20
13521;DHT22;6832;51.186;3.236;2023-02-24T13:26:07;14.90;62.40
13521;DHT22;6832;51.186;3.236;2023-02-24T13:28:35;14.80;62.20
13521;DHT22;6832;51.186;3.236;2023-02-24T13:31:05;14.80;62.20
13521;DHT22;6832;51.186;3.236;2023-02-24T13:33:36;14.80;62.20
13521;DHT22;6832;51.186;3.236;2023-02-24T13:36:15;14.80;62.20
13521;DHT22;6832;51.186;3.236;2023-02-24T13:38:46;14.80;62.10
13521;DHT22;6832;51.186;3.236;2023-02-24T13:41:23;14.80;62.10
13521;DHT22;6832;51.186;3.236;2023-02-24T13:44:00;14.80;62.10
13521;DHT22;6832;51.186;3.236;2023-02-24T13:46:32;14.80;62.10
13521;DHT22;6832;51.186;3.236;2023-02-24T13:49:22;14.80;62.00
13521;DHT22;6832;51.186;3.236;2023-02-24T13:51:59;14.80;62.00
13521;DHT22;6832;51.186;3.236;2023-02-24T13:58:01;14.80;62.10
13521;DHT22;6832;51.186;3.236;2023-02-24T14:00:41;14.80;62.00
13521;DHT22;6832;51.186;3.236;2023-02-24T14:03:19;14.80;62.10
13521;DHT22;6832;51.186;3.236;2023-02-24T14:05:47;14.80;62.10
13521;DHT22;6832;51.186;3.236;2023-02-24T14:08:21;14.80;62.10
13521;DHT22;6832;51.186;3.236;2023-02-24T14:10:54;14.80;62.10
13521;DHT22;6832;51.186;3.236;2023-02-24T14:13:23;14.80;62.10
13521;DHT22;6832;51.186;3.236;2023-02-24T14:15:55;14.80;62.20
13521;DHT22;6832;51.186;3.236;2023-02-24T14:18:26;14.80;62.10
13521;DHT22;6832;51.186;3.236;2023-02-24T14:20:54;14.80;62.20
13521;DHT22;6832;51.186;3.236;2023-02-24T14:23:25;14.80;62.20
13521;DHT22;6832;51.186;3.236;2023-02-24T14:25:57;14.80;62.20
13521;DHT22;6832;51.186;3.236;2023-02-24T14:28:29;14.80;62.20
13521;DHT22;6832;51.186;3.236;2023-02-24T14:30:58;14.80;62.20
13521;DHT22;6832;51.186;3.236;2023-02-24T14:33:29;14.80;63.00
13521;DHT22;6832;51.186;3.236;2023-02-24T14:35:56;14.80;62.20
13521;DHT22;6832;51.186;3.236;2023-02-24T14:38:30;14.80;62.20
13521;DHT22;6832;51.186;3.236;2023-02-24T14:40:59;14.80;62.20
13521;DHT22;6832;51.186;3.236;2023-02-24T14:43:41;14.80;62.30
13521;DHT22;6832;51.186;3.236;2023-02-24T14:46:08;14.80;62.30
13521;DHT22;6832;51.186;3.236;2023-02-24T14:51:52;14.80;62.30
13521;DHT22;6832;51.186;3.236;2023-02-24T14:54:33;14.80;62.30
13521;DHT22;6832;51.186;3.236;2023-02-24T14:57:01;14.80;62.30
13521;DHT22;6832;51.186;3.236;2023-02-24T14:59:30;14.80;62.30
13521;DHT22;6832;51.186;3.236;2023-02-24T15:01:58;14.80;62.30
13521;DHT22;6832;51.186;3.236;2023-02-24T15:04:31;14.80;62.30
13521;DHT22;6832;51.186;3.236;2023-02-24T15:07:01;14.80;62.30
13521;DHT22;6832;51.186;3.236;2023-02-24T15:09:34;14.80;62.30
13521;DHT22;6832;51.186;3.236;2023-02-24T15:12:11;14.80;62.30
13521;DHT22;6832;51.186;3.236;2023-02-24T15:14:41;14.80;62.30
13521;DHT22;6832;51.186;3.236;2023-02-24T15:17:14;14.80;62.30
13521;DHT22;6832;51.186;3.236;2023-02-24T15:19:42;14.80;62.30
13521;DHT22;6832;51.186;3.236;2023-02-24T15:22:20;14.80;62.40
13521;DHT22;6832;51.186;3.236;2023-02-24T15:24:52;14.80;62.40
13521;DHT22;6832;51.186;3.236;2023-02-24T15:27:26;14.80;62.40
13521;DHT22;6832;51.186;3.236;2023-02-24T15:29:58;14.80;62.50
13521;DHT22;6832;51.186;3.236;2023-02-24T15:32:28;14.80;62.40
13521;DHT22;6832;51.186;3.236;2023-02-24T15:34:56;14.80;62.40
13521;DHT22;6832;51.186;3.236;2023-02-24T15:37:25;14.80;62.40
13521;DHT22;6832;51.186;3.236;2023-02-24T15:40:03;14.90;62.50
13521;DHT22;6832;51.186;3.236;2023-02-24T15:42:32;14.80;62.40
13521;DHT22;6832;51.186;3.236;2023-02-24T15:45:00;14.90;62.50
13521;DHT22;6832;51.186;3.236;2023-02-24T15:47:29;14.90;62.50
13521;DHT22;6832;51.186;3.236;2023-02-24T15:50:02;14.80;62.40
13521;DHT22;6832;51.186;3.236;2023-02-24T15:52:29;14.90;62.50
13521;DHT22;6832;51.186;3.236;2023-02-24T15:54:58;14.80;62.40
13521;DHT22;6832;51.186;3.236;2023-02-24T15:57:28;14.80;62.40
13521;DHT22;6832;51.186;3.236;2023-02-24T15:59:56;14.90;62.60
13521;DHT22;6832;51.186;3.236;2023-02-24T16:02:23;14.90;62.50
13521;DHT22;6832;51.186;3.236;2023-02-24T16:04:51;14.90;62.50
13521;DHT22;6832;51.186;3.236;2023-02-24T16:07:20;14.90;62.50
13521;DHT22;6832;51.186;3.236;2023-02-24T16:09:49;14.90;62.50
13521;DHT22;6832;51.186;3.236;2023-02-24T16:12:24;14.90;62.50
13521;DHT22;6832;51.186;3.236;2023-02-24T16:14:53;14.90;62.50
13521;DHT22;6832;51.186;3.236;2023-02-24T16:17:30;14.90;62.50
13521;DHT22;6832;51.186;3.236;2023-02-24T16:19:58;14.90;62.50
13521;DHT22;6832;51.186;3.236;2023-02-24T16:22:28;14.90;62.40
13521;DHT22;6832;51.186;3.236;2023-02-24T16:24:56;14.90;62.50
13521;DHT22;6832;51.186;3.236;2023-02-24T16:27:25;14.90;62.40
13521;DHT22;6832;51.186;3.236;2023-02-24T16:29:55;14.90;62.40
13521;DHT22;6832;51.186;3.236;2023-02-24T16:32:23;14.90;62.40
13521;DHT22;6832;51.186;3.236;2023-02-24T16:34:52;14.90;62.40
13521;DHT22;6832;51.186;3.236;2023-02-24T16:37:21;14.90;63.20
13521;DHT22;6832;51.186;3.236;2023-02-24T16:39:48;14.90;62.40